Time;durP1;ratioP1;P1;durP2;ratioP2;P2;SDS_P1;SDS_P2;PMS_P1;PMS_P2;Temp;Humidity;BMP_temperature;BMP_pressure;BME280_temperature;BME280_humidity;BME280_pressure;Samples;Min_cycle;Max_cycle;Signal;HPM_P1;HPM_P2
2024/02/11 00:00:34;;;;;;;;;0.75;0.75;;;;;11.53;100.00;98569.22;5054409;28;47357;-80
2024/02/11 00:02:59;;;;;;;;;0.00;0.00;;;;;11.57;100.00;98565.47;5053695;28;70343;-80
2024/02/11 00:05:27;;;;;;;;;0.00;0.00;;;;;11.57;100.00;98563.72;5055872;28;45331;-80
2024/02/11 00:07:52;;;;;;;;;0.00;0.00;;;;;11.62;100.00;98556.41;5056065;28;45407;-79
2024/02/11 00:10:18;;;;;;;;;0.00;0.00;;;;;11.53;100.00;98579.66;5054383;28;69185;-80
2024/02/11 00:12:43;;;;;;;;;0.00;0.00;;;;;11.61;100.00;98574.78;5055548;28;45523;-79
2024/02/11 00:15:09;;;;;;;;;0.00;0.00;;;;;11.64;100.00;98569.34;5054534;28;45312;-80
2024/02/11 00:17:35;;;;;;;;;0.00;0.00;;;;;11.65;100.00;98571.00;5055679;28;45493;-79
2024/02/11 00:20:02;;;;;;;;;6.75;6.75;;;;;11.67;100.00;98563.09;5054301;28;45426;-80
2024/02/11 00:22:27;;;;;;;;;0.00;0.00;;;;;11.68;100.00;98562.13;5054991;28;45497;-79
2024/02/11 00:24:53;;;;;;;;;0.00;0.00;;;;;11.67;100.00;98565.72;5054612;28;69221;-79
2024/02/11 00:27:22;;;;;;;;;4.00;4.00;;;;;11.70;100.00;98557.66;5058734;28;45303;-79
2024/02/11 00:29:47;;;;;;;;;0.00;0.00;;;;;11.69;100.00;98554.22;5057575;28;46284;-79
2024/02/11 00:32:13;;;;;;;;;0.00;0.00;;;;;11.68;100.00;98556.94;5058931;28;45325;-79
2024/02/11 00:34:38;;;;;;;;;0.00;0.00;;;;;11.75;100.00;98555.56;5058991;28;45381;-80
2024/02/11 00:37:06;;;;;;;;;0.00;0.00;;;;;11.67;100.00;98558.72;5058646;28;45399;-79
2024/02/11 00:39:32;;;;;;;;;0.00;0.00;;;;;11.68;100.00;98559.53;5058763;28;45336;-79
2024/02/11 00:41:58;;;;;;;;;0.00;0.00;;;;;11.70;100.00;98562.88;5057566;28;45360;-79
2024/02/11 00:44:23;;;;;;;;;0.00;0.00;;;;;11.72;100.00;98556.63;5058894;28;45245;-79
2024/02/11 00:46:49;;;;;;;;;0.00;0.00;;;;;11.73;100.00;98560.88;5058866;28;45304;-79
2024/02/11 00:49:15;;;;;;;;;0.00;0.00;;;;;11.73;100.00;98566.09;5057262;28;77180;-79
2024/02/11 00:51:40;;;;;;;;;0.00;0.00;;;;;11.77;100.00;98566.72;5058248;28;45391;-79
2024/02/11 00:54:05;;;;;;;;;0.00;0.00;;;;;11.76;100.00;98570.28;5058663;28;45445;-79
2024/02/11 00:56:31;;;;;;;;;0.00;0.00;;;;;11.75;100.00;98561.63;5058758;28;45442;-79
2024/02/11 00:58:57;;;;;;;;;0.00;0.00;;;;;11.77;100.00;98571.94;5058791;28;46350;-80
2024/02/11 01:01:23;;;;;;;;;0.00;0.00;;;;;11.79;100.00;98570.06;5058834;28;45411;-80
2024/02/11 01:03:56;;;;;;;;;0.00;0.00;;;;;11.86;100.00;98563.50;5057772;28;45380;-80
2024/02/11 01:06:24;;;;;;;;;0.00;0.00;;;;;11.89;100.00;98555.47;5058608;28;45413;-80
2024/02/11 01:08:49;;;;;;;;;0.00;0.00;;;;;11.81;100.00;98569.03;5056912;28;46445;-81
2024/02/11 01:11:17;;;;;;;;;0.00;0.00;;;;;11.87;100.00;98572.13;5057357;28;45441;-80
2024/02/11 01:13:42;;;;;;;;;0.00;0.00;;;;;11.88;100.00;98571.22;5058709;28;45294;-80
2024/02/11 01:16:08;;;;;;;;;0.00;0.00;;;;;11.91;100.00;98577.09;5058472;28;45225;-80
2024/02/11 01:18:33;;;;;;;;;0.00;0.00;;;;;11.94;100.00;98569.06;5057510;28;66912;-80
2024/02/11 01:20:58;;;;;;;;;0.00;0.00;;;;;11.95;100.00;98567.28;5057006;28;71776;-80
2024/02/11 01:23:24;;;;;;;;;0.00;0.00;;;;;11.92;100.00;98575.31;5056817;28;45316;-80
2024/02/11 01:25:49;;;;;;;;;0.00;0.00;;;;;11.94;100.00;98573.41;5057715;28;57346;-79
2024/02/11 01:28:15;;;;;;;;;0.00;0.00;;;;;11.86;100.00;98570.50;5057935;28;47422;-79
2024/02/11 01:30:41;;;;;;;;;0.00;0.00;;;;;11.82;100.00;98575.06;5038335;28;45959;-79
2024/02/11 01:33:09;;;;;;;;;0.00;0.00;;;;;11.76;100.00;98571.13;5038049;28;45430;-79
2024/02/11 01:35:34;;;;;;;;;0.00;0.00;;;;;11.79;100.00;98562.25;5037657;28;45468;-79
2024/02/11 01:38:00;;;;;;;;;1.00;0.00;;;;;11.71;100.00;98575.81;5036737;28;45363;-80
2024/02/11 01:40:26;;;;;;;;;0.00;0.00;;;;;11.78;100.00;98560.59;5037947;28;45241;-80
2024/02/11 01:42:55;;;;;;;;;0.00;0.00;;;;;11.87;100.00;98559.09;5037158;28;64935;-79
2024/02/11 01:45:21;;;;;;;;;0.00;0.00;;;;;11.84;100.00;98567.97;5037817;28;45357;-80
2024/02/11 01:47:47;;;;;;;;;0.00;0.00;;;;;11.85;100.00;98556.63;5037748;28;46319;-79
2024/02/11 01:50:16;;;;;;;;;0.00;0.00;;;;;11.84;100.00;98561.94;5049020;28;67106;-80
2024/02/11 01:52:42;;;;;;;;;0.00;0.00;;;;;11.83;100.00;98568.94;5057966;28;45279;-80
2024/02/11 01:55:10;;;;;;;;;0.00;0.00;;;;;11.88;100.00;98564.22;5056829;28;45480;-79
2024/02/11 01:57:36;;;;;;;;;0.00;0.00;;;;;11.90;100.00;98567.59;5056492;28;47283;-79
2024/02/11 02:00:02;;;;;;;;;0.00;0.00;;;;;11.88;100.00;98561.59;5057597;28;45533;-80
2024/02/11 02:02:29;;;;;;;;;0.00;0.00;;;;;11.91;100.00;98565.81;5056749;28;45519;-79
2024/02/11 02:04:54;;;;;;;;;0.00;0.00;;;;;11.93;100.00;98574.38;5057298;28;45355;-79
2024/02/11 02:07:19;;;;;;;;;0.00;0.00;;;;;11.96;100.00;98563.72;5055569;28;67114;-79
2024/02/11 02:09:45;;;;;;;;;0.00;0.00;;;;;11.93;100.00;98575.19;5056453;28;71933;-80
2024/02/11 02:12:10;;;;;;;;;0.00;0.00;;;;;11.98;100.00;98575.72;5057640;28;45457;-80
2024/02/11 02:14:36;;;;;;;;;0.00;0.00;;;;;12.13;100.00;98565.16;5056406;28;45966;-80
2024/02/11 02:17:02;;;;;;;;;0.00;0.00;;;;;12.01;100.00;98566.84;5055739;28;57788;-80
2024/02/11 02:19:27;;;;;;;;;0.00;0.00;;;;;12.03;100.00;98566.75;5056969;28;45416;-80
2024/02/11 02:21:56;;;;;;;;;0.00;0.00;;;;;12.00;100.00;98563.41;5057435;28;45391;-80
2024/02/11 02:24:21;;;;;;;;;0.00;0.00;;;;;12.08;100.00;98562.03;5056039;28;45433;-79
2024/02/11 02:26:47;;;;;;;;;0.00;0.00;;;;;12.07;100.00;98560.38;5057184;28;46586;-80
2024/02/11 02:29:12;;;;;;;;;0.00;0.00;;;;;12.02;100.00;98563.31;5049632;28;45314;-80
2024/02/11 02:31:37;;;;;;;;;0.00;0.00;;;;;11.99;100.00;98581.75;5036265;28;68942;-80
2024/02/11 02:34:03;;;;;;;;;0.00;0.00;;;;;12.05;100.00;98570.91;5036613;28;45596;-79
2024/02/11 02:36:28;;;;;;;;;0.00;0.00;;;;;12.06;100.00;98575.19;5036963;28;48998;-80
2024/02/11 02:38:53;;;;;;;;;0.00;0.00;;;;;12.09;100.00;98574.97;5037069;28;72997;-80
2024/02/11 02:41:19;;;;;;;;;0.00;0.00;;;;;12.08;100.00;98577.69;5036262;28;68584;-80
2024/02/11 02:43:46;;;;;;;;;0.00;0.00;;;;;12.10;100.00;98583.63;5036995;28;45612;-80
2024/02/11 02:46:12;;;;;;;;;0.00;0.00;;;;;12.07;100.00;98583.84;5036773;28;47303;-80
2024/02/11 02:48:37;;;;;;;;;0.00;0.00;;;;;12.04;100.00;98590.09;5036228;28;45394;-81
2024/02/11 02:51:03;;;;;;;;;0.00;0.00;;;;;12.09;100.00;98574.97;5055787;28;69271;-80
2024/02/11 02:53:28;;;;;;;;;0.00;0.00;;;;;12.12;100.00;98572.13;5057074;28;45308;-80
2024/02/11 02:55:55;;;;;;;;;100.00;84.67;;;;;12.17;100.00;98571.84;5055710;28;72055;-80
2024/02/11 02:58:23;;;;;;;;;0.00;0.00;;;;;12.14;100.00;98572.03;5056586;28;45418;-80
2024/02/11 03:00:49;;;;;;;;;0.00;0.00;;;;;12.07;100.00;98587.31;5057019;28;45418;-80
2024/02/11 03:03:14;;;;;;;;;0.00;0.00;;;;;12.13;100.00;98581.66;5056420;28;45377;-80
2024/02/11 03:05:41;;;;;;;;;0.00;0.00;;;;;12.19;100.00;98577.78;5056521;28;45397;-79
2024/02/11 03:08:07;;;;;;;;;0.25;0.25;;;;;12.11;100.00;98580.06;5056580;28;45452;-81
2024/02/11 03:10:33;;;;;;;;;0.00;0.00;;;;;12.21;100.00;98583.72;5055426;28;45427;-80
2024/02/11 03:12:59;;;;;;;;;1.00;1.00;;;;;12.23;100.00;98581.81;5056838;28;45466;-80
2024/02/11 03:15:24;;;;;;;;;0.00;0.00;;;;;12.19;100.00;98586.44;5056808;28;46066;-80
2024/02/11 03:17:49;;;;;;;;;0.00;0.00;;;;;12.24;100.00;98578.28;5056277;28;45358;-80
2024/02/11 03:20:15;;;;;;;;;0.00;0.00;;;;;12.24;100.00;98583.50;5055486;28;68229;-80
2024/02/11 03:22:44;;;;;;;;;0.00;0.00;;;;;12.29;100.00;98576.16;5056551;28;45407;-80
2024/02/11 03:25:10;;;;;;;;;0.00;0.00;;;;;12.25;100.00;98582.56;5056436;28;45625;-80
2024/02/11 03:27:38;;;;;;;;;0.00;0.00;;;;;12.40;100.00;98591.06;5056561;28;45412;-80
2024/02/11 03:30:06;;;;;;;;;0.00;0.00;;;;;12.30;100.00;98590.91;5041719;28;45260;-80
2024/02/11 03:32:31;;;;;;;;;0.00;0.00;;;;;12.33;100.00;98588.09;5035928;28;45598;-80
2024/02/11 03:34:56;;;;;;;;;0.00;0.00;;;;;12.39;100.00;98589.41;5035099;28;75337;-80
2024/02/11 03:37:22;;;;;;;;;0.00;0.00;;;;;12.39;100.00;98597.25;5035156;28;73178;-80
2024/02/11 03:39:51;;;;;;;;;0.00;0.00;;;;;12.39;100.00;98582.41;5018518;28;45447;-80
2024/02/11 03:42:16;;;;;;;;;0.00;0.00;;;;;12.38;100.00;98583.34;5036372;28;45388;-80
2024/02/11 03:44:41;;;;;;;;;0.00;0.00;;;;;12.43;100.00;98584.81;5034975;28;75580;-80
2024/02/11 03:47:07;;;;;;;;;0.00;0.00;;;;;12.47;100.00;98586.25;5034447;28;73364;-80
2024/02/11 03:49:32;;;;;;;;;0.00;0.00;;;;;12.42;100.00;98593.59;5041892;28;68036;-81
2024/02/11 03:51:58;;;;;;;;;0.00;0.00;;;;;12.44;100.00;98595.13;5056083;28;45311;-80
2024/02/11 03:54:23;;;;;;;;;0.00;0.00;;;;;12.44;100.00;98592.50;5055823;28;46846;-80
2024/02/11 03:56:49;;;;;;;;;0.00;0.00;;;;;12.44;100.00;98594.31;5056079;28;45430;-80
2024/02/11 03:59:15;;;;;;;;;0.00;0.00;;;;;12.49;100.00;98590.41;5055918;28;45649;-80
2024/02/11 04:01:40;;;;;;;;;0.00;0.00;;;;;12.49;100.00;98593.03;5058072;28;45398;-80
2024/02/11 04:04:06;;;;;;;;;0.00;0.00;;;;;12.48;100.00;98594.00;5059431;28;45390;-80
2024/02/11 04:06:31;;;;;;;;;0.00;0.00;;;;;12.45;100.00;98601.19;5059445;28;45505;-80
2024/02/11 04:09:00;;;;;;;;;0.00;0.00;;;;;12.47;100.00;98604.53;5059624;28;45290;-80
2024/02/11 04:11:30;;;;;;;;;0.00;0.00;;;;;12.50;100.00;98607.75;5059512;28;45238;-80
2024/02/11 04:13:55;;;;;;;;;0.00;0.00;;;;;12.39;100.00;98611.13;5059510;28;46574;-80
2024/02/11 04:16:22;;;;;;;;;0.00;0.00;;;;;12.49;100.00;98608.69;5060953;28;45239;-80
2024/02/11 04:18:49;;;;;;;;;0.00;0.00;;;;;12.50;100.00;98612.97;5059806;28;45412;-80
2024/02/11 04:21:15;;;;;;;;;0.00;0.00;;;;;12.55;100.00;98608.25;5058495;28;45527;-80
2024/02/11 04:23:41;;;;;;;;;0.00;0.00;;;;;12.53;100.00;98611.91;5059167;28;46194;-80
2024/02/11 04:26:08;;;;;;;;;0.00;0.00;;;;;12.54;100.00;98622.25;5059439;28;45438;-80
2024/02/11 04:28:37;;;;;;;;;0.00;0.00;;;;;12.56;100.00;98624.75;5057650;28;45516;-80
2024/02/11 04:31:04;;;;;;;;;0.00;0.00;;;;;12.52;100.00;98629.34;5039105;28;45279;-80
2024/02/11 04:33:30;;;;;;;;;0.00;0.00;;;;;12.54;100.00;98624.03;5038843;28;46359;-80
2024/02/11 04:35:55;;;;;;;;;0.00;0.00;;;;;12.56;100.00;98630.81;5038982;28;45379;-80
2024/02/11 04:38:23;;;;;;;;;0.00;0.00;;;;;12.57;100.00;98635.09;5037908;28;45314;-80
2024/02/11 04:40:51;;;;;;;;;0.00;0.00;;;;;12.58;100.00;98636.75;5039112;28;45241;-79
2024/02/11 04:43:17;;;;;;;;;0.00;0.00;;;;;12.55;100.00;98626.50;5038962;28;45503;-80
2024/02/11 04:45:43;;;;;;;;;0.00;0.00;;;;;12.49;100.00;98642.63;5038618;28;45371;-80
2024/02/11 04:48:09;;;;;;;;;0.00;0.00;;;;;12.55;100.00;98639.56;5038898;28;45645;-80
2024/02/11 04:50:34;;;;;;;;;0.00;0.00;;;;;12.62;100.00;98632.16;5054467;28;45473;-80
2024/02/11 04:53:02;;;;;;;;;0.00;0.00;;;;;12.56;100.00;98648.25;5058762;28;45542;-80
2024/02/11 04:55:43;;;;;;;;;0.00;0.00;;;;;12.57;100.00;98642.06;5058723;28;45377;-80
2024/02/11 04:58:18;;;;;;;;;0.00;0.00;;;;;12.55;100.00;98642.16;5058432;28;45517;-80
2024/02/11 05:00:47;;;;;;;;;0.00;0.00;;;;;12.56;100.00;98643.03;5057710;28;45391;-80
2024/02/11 05:03:17;;;;;;;;;0.00;0.00;;;;;12.59;100.00;98635.81;5058753;28;46508;-80
2024/02/11 05:05:42;;;;;;;;;0.00;0.00;;;;;12.57;100.00;98650.75;5058574;28;45458;-80
2024/02/11 05:08:08;;;;;;;;;0.00;0.00;;;;;12.62;100.00;98647.81;5057470;28;45384;-80
2024/02/11 05:10:35;;;;;;;;;0.00;0.00;;;;;12.66;100.00;98651.84;5057714;28;66220;-80
2024/02/11 05:13:07;;;;;;;;;0.00;0.00;;;;;12.59;100.00;98659.31;5057923;28;46430;-80
2024/02/11 05:15:40;;;;;;;;;0.00;0.00;;;;;12.63;100.00;98657.31;5058580;28;45342;-80
2024/02/11 05:18:06;;;;;;;;;0.00;0.00;;;;;12.61;100.00;98668.78;5058549;28;45256;-80
2024/02/11 05:20:31;;;;;;;;;0.00;0.00;;;;;12.62;100.00;98655.63;5058646;28;45462;-80
2024/02/11 05:22:58;;;;;;;;;0.00;0.00;;;;;12.66;100.00;98672.75;5056796;28;75550;-80
2024/02/11 05:25:26;;;;;;;;;0.00;0.00;;;;;12.64;100.00;98666.78;5058253;28;45441;-80
2024/02/11 05:28:02;;;;;;;;;0.00;0.00;;;;;12.65;100.00;98670.22;5058191;28;45270;-80
2024/02/11 05:30:37;;;;;;;;;0.00;0.00;;;;;12.63;100.00;98667.75;5039220;28;45548;-80
2024/02/11 05:33:03;;;;;;;;;0.00;0.00;;;;;12.63;100.00;98670.38;5036769;28;45907;-80
2024/02/11 05:35:34;;;;;;;;;0.00;0.00;;;;;12.65;100.00;98676.31;5037912;28;45300;-80
2024/02/11 05:38:01;;;;;;;;;0.00;0.00;;;;;12.64;100.00;98679.03;5037193;28;45400;-80
2024/02/11 05:40:28;;;;;;;;;0.00;0.00;;;;;12.63;100.00;98680.81;5038139;28;45537;-80
2024/02/11 05:42:57;;;;;;;;;0.00;0.00;;;;;12.65;100.00;98675.44;5037650;28;46952;-80
2024/02/11 05:45:24;;;;;;;;;0.00;0.00;;;;;12.58;100.00;98682.91;5037860;28;45451;-80
2024/02/11 05:47:50;;;;;;;;;0.00;0.00;;;;;12.61;100.00;98681.84;5038002;28;45394;-80
2024/02/11 05:50:16;;;;;;;;;0.00;0.00;;;;;12.61;100.00;98682.69;5049915;28;45426;-80
2024/02/11 05:52:43;;;;;;;;;0.00;0.00;;;;;12.57;100.00;98695.13;5058359;28;46007;-80
2024/02/11 05:55:09;;;;;;;;;0.00;0.00;;;;;12.53;100.00;98691.03;5060006;28;45347;-80
2024/02/11 05:57:36;;;;;;;;;0.00;0.00;;;;;12.52;100.00;98686.78;5057862;28;45444;-80
2024/02/11 06:00:01;;;;;;;;;0.00;0.00;;;;;12.50;100.00;98688.66;5056828;28;45420;-80
2024/02/11 06:02:26;;;;;;;;;0.00;0.00;;;;;12.53;100.00;98684.97;5057056;28;75301;-80
2024/02/11 06:04:52;;;;;;;;;0.00;0.00;;;;;12.51;100.00;98677.25;5056830;28;71965;-80
2024/02/11 06:07:19;;;;;;;;;0.00;0.00;;;;;12.52;100.00;98681.56;5057835;28;45401;-80
2024/02/11 06:09:44;;;;;;;;;0.00;0.00;;;;;12.55;100.00;98686.53;5057942;28;45436;-80
2024/02/11 06:12:11;;;;;;;;;0.00;0.00;;;;;12.57;100.00;98682.06;5057213;28;46364;-80
2024/02/11 06:14:37;;;;;;;;;0.00;0.00;;;;;12.59;100.00;98684.53;5057765;28;45279;-80
2024/02/11 06:17:04;;;;;;;;;0.00;0.00;;;;;12.61;100.00;98692.28;5057742;28;45330;-80
2024/02/11 06:19:29;;;;;;;;;0.00;0.00;;;;;12.56;100.00;98703.88;5057687;28;45454;-80
2024/02/11 06:21:55;;;;;;;;;0.00;0.00;;;;;12.50;100.00;98709.53;5057491;28;45291;-82
2024/02/11 06:24:20;;;;;;;;;0.00;0.00;;;;;12.57;100.00;98699.47;5056147;28;49854;-80
2024/02/11 06:26:47;;;;;;;;;0.00;0.00;;;;;12.57;100.00;98713.38;5057412;28;45384;-80
2024/02/11 06:29:13;;;;;;;;;0.00;0.00;;;;;12.54;100.00;98721.41;5049711;28;45525;-79
2024/02/11 06:31:39;;;;;;;;;0.00;0.00;;;;;12.52;100.00;98718.09;5037333;28;45621;-80
2024/02/11 06:34:04;;;;;;;;;0.00;0.00;;;;;12.58;100.00;98711.59;5037359;28;45478;-80
2024/02/11 06:36:35;;;;;;;;;0.00;0.00;;;;;12.59;100.00;98721.09;5037151;28;45320;-80
2024/02/11 06:39:00;;;;;;;;;0.75;0.75;;;;;12.58;100.00;98732.47;5037237;28;45281;-80
2024/02/11 06:41:25;;;;;;;;;0.00;0.00;;;;;12.57;100.00;98734.25;5036597;28;46142;-80
2024/02/11 06:43:51;;;;;;;;;0.00;0.00;;;;;12.54;100.00;98729.25;5036151;28;72937;-80
2024/02/11 06:46:16;;;;;;;;;0.00;0.00;;;;;12.55;100.00;98730.91;5036921;28;45501;-80
2024/02/11 06:48:43;;;;;;;;;0.00;0.00;;;;;12.51;100.00;98742.50;5035956;28;70111;-80
2024/02/11 06:51:09;;;;;;;;;0.00;0.00;;;;;12.44;100.00;98741.25;5036721;28;45447;-80
2024/02/11 06:53:35;;;;;;;;;0.00;0.00;;;;;12.51;100.00;98745.09;5036876;28;45312;-80
2024/02/11 06:56:00;;;;;;;;;0.00;0.00;;;;;12.52;100.00;98738.13;5036525;28;45371;-80
2024/02/11 06:58:25;;;;;;;;;0.00;0.00;;;;;12.47;100.00;98750.66;5035658;28;70726;-80
2024/02/11 07:00:51;;;;;;;;;0.00;0.00;;;;;12.48;100.00;98747.94;5036746;28;46942;-80
2024/02/11 07:03:18;;;;;;;;;0.00;0.00;;;;;12.47;100.00;98746.25;5036662;28;45436;-79
2024/02/11 07:05:44;;;;;;;;;0.00;0.00;;;;;12.50;100.00;98755.66;5035911;28;65856;-79
2024/02/11 07:08:11;;;;;;;;;0.00;0.00;;;;;12.50;100.00;98753.03;5036530;28;45462;-80
2024/02/11 07:10:36;;;;;;;;;1.00;1.00;;;;;12.53;100.00;98756.28;5036162;28;45662;-79
2024/02/11 07:13:02;;;;;;;;;0.00;0.00;;;;;12.63;100.00;98766.94;5036571;28;45429;-81
2024/02/11 07:15:27;;;;;;;;;0.00;0.00;;;;;12.51;100.00;98757.31;5035774;28;68052;-80
2024/02/11 07:17:53;;;;;;;;;0.00;0.00;;;;;12.49;100.00;98767.03;5036345;28;45384;-80
2024/02/11 07:20:19;;;;;;;;;0.00;0.00;;;;;12.76;100.00;98766.94;5036433;28;45590;-80
2024/02/11 07:22:45;;;;;;;;;0.00;0.00;;;;;12.59;100.00;98771.53;5035200;28;72913;-80
2024/02/11 07:25:12;;;;;;;;;0.00;0.00;;;;;12.53;100.00;98790.19;5035959;28;45476;-81
2024/02/11 07:27:39;;;;;;;;;0.00;0.00;;;;;12.59;100.00;98776.75;5036419;28;45256;-79
2024/02/11 07:30:06;;;;;;;;;0.00;0.00;;;;;12.63;100.00;98782.59;5036150;28;46962;-80
2024/02/11 07:32:31;;;;;;;;;0.00;0.00;;;;;12.67;100.00;98785.84;5036713;28;45681;-80
2024/02/11 07:34:57;;;;;;;;;0.00;0.00;;;;;12.66;100.00;98791.97;5037248;28;45320;-80
2024/02/11 07:37:23;;;;;;;;;0.00;0.00;;;;;12.69;100.00;98794.41;5036407;28;45593;-80
2024/02/11 07:39:49;;;;;;;;;0.00;0.00;;;;;12.88;100.00;98793.94;5035806;28;45320;-80
2024/02/11 07:42:15;;;;;;;;;0.00;0.00;;;;;12.86;100.00;98807.09;5036168;28;47828;-80
2024/02/11 07:44:40;;;;;;;;;0.00;0.00;;;;;12.72;100.00;98804.59;5036305;28;45366;-80
2024/02/11 07:47:07;;;;;;;;;0.00;0.00;;;;;12.99;100.00;98801.88;5036285;28;45513;-80
2024/02/11 07:49:32;;;;;;;;;0.00;0.00;;;;;12.86;100.00;98811.50;5041597;28;46365;-80
2024/02/11 07:51:58;;;;;;;;;0.00;0.00;;;;;12.79;100.00;98816.31;5056167;28;45252;-79
2024/02/11 07:54:24;;;;;;;;;0.00;0.00;;;;;12.84;100.00;98811.59;5055361;28;67609;-80
2024/02/11 07:56:50;;;;;;;;;0.00;0.00;;;;;12.84;100.00;98824.66;5056177;28;45486;-80
2024/02/11 07:59:16;;;;;;;;;0.00;0.00;;;;;12.96;100.00;98823.81;5055822;28;46469;-80
2024/02/11 08:01:42;;;;;;;;;0.00;0.00;;;;;13.04;100.00;98822.44;5056198;28;45487;-80
2024/02/11 08:04:08;;;;;;;;;0.00;0.00;;;;;13.10;100.00;98822.84;5056064;28;45390;-80
2024/02/11 08:06:34;;;;;;;;;0.00;0.00;;;;;13.16;100.00;98825.03;5055648;28;45428;-80
2024/02/11 08:09:00;;;;;;;;;0.00;0.00;;;;;13.27;100.00;98834.72;5054587;28;46306;-80
2024/02/11 08:11:25;;;;;;;;;0.00;0.00;;;;;13.23;100.00;98845.50;5055805;28;45485;-81
2024/02/11 08:13:54;;;;;;;;;0.00;0.00;;;;;13.29;100.00;98835.44;5056248;28;45376;-80
2024/02/11 08:16:22;;;;;;;;;0.00;0.00;;;;;13.36;100.00;98835.91;5055988;28;45445;-80
2024/02/11 08:18:47;;;;;;;;;0.00;0.00;;;;;13.32;100.00;98848.34;5055845;28;45414;-81
2024/02/11 08:21:13;;;;;;;;;0.00;0.00;;;;;13.39;100.00;98847.91;5055316;28;45408;-80
2024/02/11 08:23:38;;;;;;;;;0.00;0.00;;;;;13.33;100.00;98850.03;5055534;28;45496;-80
2024/02/11 08:26:03;;;;;;;;;0.00;0.00;;;;;13.44;100.00;98845.81;5054896;28;69388;-80
2024/02/11 08:28:29;;;;;;;;;0.00;0.00;;;;;13.39;100.00;98851.38;5053412;28;69676;-81
2024/02/11 08:30:54;;;;;;;;;0.00;0.00;;;;;13.43;100.00;98849.34;5035310;28;45364;-80
2024/02/11 08:33:20;;;;;;;;;0.00;0.00;;;;;13.47;100.00;98854.25;5035774;28;45313;-80
2024/02/11 08:35:47;;;;;;;;;0.00;0.00;;;;;13.46;100.00;98857.81;5035155;28;45446;-80
2024/02/11 08:38:13;;;;;;;;;0.00;0.00;;;;;13.54;100.00;98854.69;5035287;28;45304;-80
2024/02/11 08:40:38;;;;;;;;;0.00;0.00;;;;;13.58;100.00;98852.66;5035448;28;45328;-80
2024/02/11 08:43:04;;;;;;;;;0.00;0.00;;;;;13.58;100.00;98852.66;5035533;28;45307;-80
2024/02/11 08:45:29;;;;;;;;;1.67;1.00;;;;;13.57;100.00;98864.06;5034419;28;69450;-81
2024/02/11 08:47:56;;;;;;;;;0.00;0.00;;;;;13.59;100.00;98857.78;5036541;28;72433;-80
2024/02/11 08:50:22;;;;;;;;;0.00;0.00;;;;;13.60;100.00;98869.09;5051928;28;45420;-80
2024/02/11 08:52:49;;;;;;;;;0.00;0.00;;;;;13.58;100.00;98874.41;5057812;28;45361;-80
2024/02/11 08:55:17;;;;;;;;;0.00;0.00;;;;;13.62;100.00;98869.81;5058890;28;45493;-80
2024/02/11 08:57:45;;;;;;;;;0.00;0.00;;;;;13.68;100.00;98875.41;5058620;28;46699;-80
2024/02/11 09:00:12;;;;;;;;;0.00;0.00;;;;;13.67;100.00;98876.38;5058585;28;45378;-81
2024/02/11 09:02:38;;;;;;;;;0.00;0.00;;;;;13.83;100.00;98878.72;5057443;28;45350;-80
2024/02/11 09:05:04;;;;;;;;;0.00;0.00;;;;;13.82;100.00;98878.81;5058326;28;45296;-81
2024/02/11 09:07:29;;;;;;;;;0.00;0.00;;;;;13.93;100.00;98874.50;5058573;28;46145;-80
2024/02/11 09:09:55;;;;;;;;;0.00;0.00;;;;;13.91;100.00;98886.00;5058358;28;45506;-81
2024/02/11 09:12:20;;;;;;;;;0.00;0.00;;;;;14.11;100.00;98876.72;5061924;28;45347;-80
2024/02/11 09:14:47;;;;;;;;;0.00;0.00;;;;;14.22;100.00;98881.16;5057064;28;72269;-81
2024/02/11 09:17:12;;;;;;;;;0.00;0.00;;;;;14.23;100.00;98886.28;5058578;28;45294;-81
2024/02/11 09:19:38;;;;;;;;;0.00;0.00;;;;;14.17;100.00;98888.50;5040306;28;45404;-81
2024/02/11 09:22:05;;;;;;;;;0.00;0.00;;;;;14.05;100.00;98883.22;5058307;28;49655;-82
2024/02/11 09:24:32;;;;;;;;;0.00;0.00;;;;;13.97;100.00;98897.78;5057140;28;45305;-82
2024/02/11 09:26:57;;;;;;;;;0.00;0.00;;;;;14.06;100.00;98886.66;5058468;28;46083;-81
2024/02/11 09:29:23;;;;;;;;;0.00;0.00;;;;;13.91;100.00;98889.47;5049658;28;45418;-80
2024/02/11 09:31:49;;;;;;;;;0.00;0.00;;;;;13.99;100.00;98888.91;5038125;28;47477;-80
2024/02/11 09:34:15;;;;;;;;;0.00;0.00;;;;;13.93;100.00;98889.38;5037885;28;45739;-80
2024/02/11 09:36:41;;;;;;;;;0.00;0.00;;;;;13.83;100.00;98904.03;5037975;28;47532;-81
2024/02/11 09:39:06;;;;;;;;;0.00;0.00;;;;;13.78;100.00;98893.91;5038055;28;45455;-81
2024/02/11 09:41:32;;;;;;;;;0.00;0.00;;;;;13.83;100.00;98891.78;5037237;28;70236;-80
2024/02/11 09:44:04;;;;;;;;;0.00;0.00;;;;;13.92;100.00;98903.38;5037804;28;45304;-81
2024/02/11 09:46:35;;;;;;;;;0.00;0.00;;;;;14.14;100.00;98897.44;5036669;28;46203;-80
2024/02/11 09:49:01;;;;;;;;;0.00;0.00;;;;;14.20;100.00;98896.16;5039755;28;45374;-81
2024/02/11 09:51:27;;;;;;;;;0.00;0.00;;;;;14.35;100.00;98894.19;5056860;28;45547;-80
2024/02/11 09:54:00;;;;;;;;;0.00;0.00;;;;;14.48;100.00;98906.22;5055887;28;66335;-80
2024/02/11 09:56:26;;;;;;;;;0.00;0.00;;;;;14.51;100.00;98910.41;5057755;28;46254;-80
2024/02/11 09:58:52;;;;;;;;;0.00;0.00;;;;;14.52;100.00;98901.59;5056558;28;45388;-81
2024/02/11 10:01:18;;;;;;;;;0.00;0.00;;;;;14.72;100.00;98894.91;5057931;28;45375;-80
2024/02/11 10:03:45;;;;;;;;;0.00;0.00;;;;;14.70;100.00;98909.91;5056379;28;45437;-80
2024/02/11 10:06:14;;;;;;;;;0.00;0.00;;;;;14.61;100.00;98915.84;5056221;28;46686;-81
2024/02/11 10:08:40;;;;;;;;;0.00;0.00;;;;;14.64;100.00;98911.22;5056423;28;45344;-80
2024/02/11 10:11:09;;;;;;;;;0.00;0.00;;;;;14.69;100.00;98910.84;5057870;28;45303;-80
2024/02/11 10:13:36;;;;;;;;;1.00;0.00;;;;;14.72;100.00;98910.63;5056388;28;45522;-81
2024/02/11 10:16:05;;;;;;;;;0.00;0.00;;;;;14.84;100.00;98906.22;5057031;28;65935;-79
2024/02/11 10:18:32;;;;;;;;;0.00;0.00;;;;;14.88;100.00;98911.13;5055835;28;45358;-80
2024/02/11 10:20:59;;;;;;;;;0.00;0.00;;;;;14.87;100.00;98917.31;5057535;28;45350;-80
2024/02/11 10:23:24;;;;;;;;;0.00;0.00;;;;;14.80;100.00;98917.91;5055334;28;58878;-80
2024/02/11 10:25:50;;;;;;;;;0.00;0.00;;;;;14.89;100.00;98918.06;5056475;28;69831;-79
2024/02/11 10:28:16;;;;;;;;;0.00;0.00;;;;;14.96;100.00;98921.03;5057022;28;45463;-80
2024/02/11 10:30:41;;;;;;;;;0.00;0.00;;;;;14.88;100.00;98915.56;5037665;28;45288;-80
2024/02/11 10:33:09;;;;;;;;;0.00;0.00;;;;;14.80;100.00;98934.47;5035683;28;45436;-80
2024/02/11 10:35:35;;;;;;;;;0.00;0.00;;;;;14.94;100.00;98922.94;5035688;28;46264;-81
2024/02/11 10:38:04;;;;;;;;;0.00;0.00;;;;;15.09;100.00;98926.19;5037040;28;45324;-80
2024/02/11 10:40:30;;;;;;;;;0.00;0.00;;;;;15.13;100.00;98937.25;5037152;28;45954;-80
2024/02/11 10:42:56;;;;;;;;;1.00;0.00;;;;;15.07;100.00;98946.41;5036970;28;45605;-80
2024/02/11 10:45:21;;;;;;;;;0.50;0.50;;;;;15.02;100.00;98932.84;5036932;28;45680;-81
2024/02/11 10:47:47;;;;;;;;;0.00;0.00;;;;;14.98;100.00;98928.78;5036322;28;47889;-80
2024/02/11 10:50:12;;;;;;;;;0.00;0.00;;;;;15.07;100.00;98915.81;5049023;28;45389;-79
2024/02/11 10:52:42;;;;;;;;;0.00;0.00;;;;;15.16;100.00;98932.63;5060971;28;45150;-81
2024/02/11 10:55:11;;;;;;;;;0.00;0.00;;;;;15.34;100.00;98935.63;5057419;28;45419;-80
2024/02/11 10:57:44;;;;;;;;;0.00;0.00;;;;;15.71;100.00;98937.13;5055913;28;45382;-80
2024/02/11 11:00:12;;;;;;;;;0.00;0.00;;;;;15.98;100.00;98940.22;5057008;28;45511;-80
2024/02/11 11:02:37;;;;;;;;;0.00;0.00;;;;;16.23;100.00;98938.25;5055598;28;45326;-80
2024/02/11 11:05:06;;;;;;;;;0.00;0.00;;;;;16.29;100.00;98950.88;5054658;28;64552;-80
2024/02/11 11:07:36;;;;;;;;;0.00;0.00;;;;;16.17;100.00;98947.44;5055534;28;45394;-80
2024/02/11 11:10:03;;;;;;;;;0.00;0.00;;;;;16.05;100.00;98937.94;5055771;28;45498;-80
2024/02/11 11:12:28;;;;;;;;;0.00;0.00;;;;;15.82;100.00;98956.38;5055517;28;45337;-80
2024/02/11 11:14:59;;;;;;;;;0.00;0.00;;;;;15.64;100.00;98937.63;5056649;28;46205;-80
2024/02/11 11:17:25;;;;;;;;;0.00;0.00;;;;;15.50;100.00;98945.72;5056706;28;45469;-80
2024/02/11 11:19:52;;;;;;;;;0.00;0.00;;;;;15.20;100.00;98943.69;5055606;28;45316;-81